createdAt,value
2018-03-18T00:00:48.321Z,-2.70
2018-03-18T00:03:15.849Z,-2.79
2018-03-18T00:05:43.377Z,-2.77
2018-03-18T00:08:10.911Z,-2.79
2018-03-18T00:10:38.432Z,-2.78
2018-03-18T00:13:05.949Z,-2.75
2018-03-18T00:15:33.487Z,-2.83
2018-03-18T00:18:01.065Z,-2.84
2018-03-18T00:20:28.610Z,-2.82
2018-03-18T00:22:56.127Z,-2.88
2018-03-18T00:25:23.648Z,-2.86
2018-03-18T00:27:51.182Z,-2.89
2018-03-18T00:30:18.786Z,-2.83
2018-03-18T00:32:46.360Z,-2.84
2018-03-18T00:35:13.884Z,-2.82
2018-03-18T00:37:41.414Z,-2.86
2018-03-18T00:40:08.939Z,-2.93
2018-03-18T00:42:36.469Z,-2.93
2018-03-18T00:45:03.999Z,-2.89
2018-03-18T00:47:31.531Z,-2.90
2018-03-18T00:49:59.103Z,-2.93
2018-03-18T00:52:26.653Z,-2.91
2018-03-18T00:54:54.165Z,-2.91
2018-03-18T00:57:21.695Z,-2.94
2018-03-18T00:59:49.225Z,-2.96
2018-03-18T01:02:16.741Z,-3.05
2018-03-18T01:04:44.278Z,-3.03
2018-03-18T01:07:11.790Z,-3.05
2018-03-18T01:09:39.321Z,-3.09
2018-03-18T01:12:06.851Z,-3.13
2018-03-18T01:14:34.377Z,-3.14
2018-03-18T01:17:01.894Z,-3.19
2018-03-18T01:19:29.412Z,-3.18
2018-03-18T01:21:56.932Z,-3.16
2018-03-18T01:24:24.508Z,-3.20
2018-03-18T01:26:52.038Z,-3.24
2018-03-18T01:29:19.581Z,-3.28
2018-03-18T01:31:47.130Z,-3.19
2018-03-18T01:34:14.657Z,-3.26
2018-03-18T01:36:42.181Z,-3.24
2018-03-18T01:39:09.699Z,-3.25
2018-03-18T01:41:37.230Z,-3.26
2018-03-18T01:44:04.747Z,-3.31
2018-03-18T01:46:32.277Z,-3.29
2018-03-18T01:48:59.805Z,-3.32
2018-03-18T01:51:27.329Z,-3.30
2018-03-18T01:53:54.845Z,-3.27
2018-03-18T01:56:22.413Z,-3.30
2018-03-18T01:58:49.962Z,-3.41
2018-03-18T02:01:17.486Z,-3.35
2018-03-18T02:03:45.026Z,-3.44
2018-03-18T02:06:12.566Z,-3.42
2018-03-18T02:08:40.085Z,-3.42
2018-03-18T02:11:07.671Z,-3.46
2018-03-18T02:13:35.201Z,-3.45
2018-03-18T02:16:02.722Z,-3.54
2018-03-18T02:18:30.236Z,-3.55
2018-03-18T02:20:57.751Z,-3.60
2018-03-18T02:23:25.272Z,-3.57
2018-03-18T02:25:52.797Z,-3.58
2018-03-18T02:28:20.317Z,-3.54
2018-03-18T02:30:47.865Z,-3.56
2018-03-18T02:33:15.378Z,-3.61
2018-03-18T02:35:42.896Z,-3.67
2018-03-18T02:38:10.423Z,-3.69
2018-03-18T02:40:37.936Z,-3.64
2018-03-18T02:43:05.479Z,-3.67
2018-03-18T02:45:33.007Z,-3.65
2018-03-18T02:48:00.531Z,-3.72
2018-03-18T02:50:28.050Z,-3.68
2018-03-18T02:52:55.583Z,-3.69
2018-03-18T02:55:23.116Z,-3.82
2018-03-18T02:57:50.620Z,-3.79
2018-03-18T03:00:18.152Z,-3.76
2018-03-18T03:02:45.682Z,-3.80
2018-03-18T03:05:13.213Z,-3.77
2018-03-18T03:07:40.740Z,-3.82
2018-03-18T03:10:08.265Z,-3.83
2018-03-18T03:12:35.783Z,-3.82
2018-03-18T03:15:03.318Z,-3.88
2018-03-18T03:17:30.833Z,-3.98
2018-03-18T03:19:58.357Z,-3.90
2018-03-18T03:22:25.879Z,-3.93
2018-03-18T03:24:53.409Z,-3.88
2018-03-18T03:27:20.941Z,-3.97
2018-03-18T03:29:48.457Z,-3.96
2018-03-18T03:32:15.990Z,-3.92
2018-03-18T03:34:43.513Z,-3.95
2018-03-18T03:37:11.019Z,-3.99
2018-03-18T03:39:38.538Z,-3.96
2018-03-18T03:42:06.064Z,-3.98
2018-03-18T03:44:33.588Z,-3.93
2018-03-18T03:47:01.109Z,-4.01
2018-03-18T03:49:28.642Z,-3.98
2018-03-18T03:51:56.168Z,-4.01
2018-03-18T03:54:23.686Z,-4.04
2018-03-18T03:56:51.224Z,-4.05
2018-03-18T03:59:18.749Z,-4.00
2018-03-18T04:01:46.271Z,-4.02
2018-03-18T04:04:13.806Z,-4.06
2018-03-18T04:06:41.324Z,-4.05
2018-03-18T04:09:08.845Z,-4.08
2018-03-18T04:11:36.363Z,-4.04
2018-03-18T04:14:03.882Z,-4.02
2018-03-18T04:16:31.409Z,-4.08
2018-03-18T04:18:58.933Z,-4.05
2018-03-18T04:21:26.460Z,-4.08
2018-03-18T04:23:53.978Z,-4.12
2018-03-18T04:26:21.824Z,-4.19
2018-03-18T04:28:49.332Z,-4.07
2018-03-18T04:31:16.861Z,-4.08
2018-03-18T04:33:44.385Z,-4.08
2018-03-18T04:36:11.915Z,-4.09
2018-03-18T04:38:39.437Z,-4.10
2018-03-18T04:41:06.953Z,-4.14
2018-03-18T04:43:34.478Z,-4.12
2018-03-18T04:46:01.998Z,-4.20
2018-03-18T04:48:29.508Z,-4.22
2018-03-18T04:50:57.030Z,-4.23
2018-03-18T04:53:24.566Z,-4.34
2018-03-18T04:55:52.456Z,-4.21
2018-03-18T04:58:19.992Z,-4.26
2018-03-18T05:00:47.517Z,-4.19
2018-03-18T05:03:15.038Z,-4.22
2018-03-18T05:05:42.570Z,-4.30
2018-03-18T05:08:10.111Z,-4.22
2018-03-18T05:10:37.643Z,-4.24
2018-03-18T05:13:05.176Z,-4.25
2018-03-18T05:15:32.706Z,-4.30
2018-03-18T05:18:00.220Z,-4.32
2018-03-18T05:20:27.754Z,-4.22
2018-03-18T05:22:55.271Z,-4.24
2018-03-18T05:25:22.801Z,-4.30
2018-03-18T05:27:50.345Z,-4.28
2018-03-18T05:30:17.893Z,-4.29
2018-03-18T05:32:45.419Z,-4.30
2018-03-18T05:35:12.941Z,-4.27
2018-03-18T05:37:40.464Z,-4.32
2018-03-18T05:40:07.984Z,-4.25
2018-03-18T05:42:35.515Z,-4.28
2018-03-18T05:45:03.033Z,-4.19
2018-03-18T05:47:30.546Z,-4.28
2018-03-18T05:49:58.064Z,-4.24
2018-03-18T05:52:25.599Z,-4.23
2018-03-18T05:54:53.109Z,-4.14
2018-03-18T05:57:20.649Z,-4.10
2018-03-18T05:59:48.171Z,-4.01
2018-03-18T06:02:15.689Z,-4.03
2018-03-18T06:04:43.215Z,-4.10
2018-03-18T06:07:10.744Z,-4.08
2018-03-18T06:09:38.266Z,-4.00
2018-03-18T06:12:05.794Z,-3.94
2018-03-18T06:14:33.320Z,-3.92
2018-03-18T06:17:00.845Z,-3.79
2018-03-18T06:19:28.361Z,-3.75
2018-03-18T06:21:55.885Z,-3.70
2018-03-18T06:24:23.430Z,-3.40
2018-03-18T06:26:50.936Z,-3.26
2018-03-18T06:29:18.449Z,-3.09
2018-03-18T06:31:45.972Z,-3.03
2018-03-18T06:34:13.500Z,-2.93
2018-03-18T06:36:41.025Z,-2.79
2018-03-18T06:39:08.549Z,-2.87
2018-03-18T06:41:36.070Z,-2.97
2018-03-18T06:44:03.604Z,-2.88
2018-03-18T06:46:31.141Z,-2.60
2018-03-18T06:48:58.673Z,-2.86
2018-03-18T06:51:26.185Z,-2.83
2018-03-18T06:53:53.702Z,-2.80
2018-03-18T06:56:21.216Z,-2.65
2018-03-18T06:58:48.753Z,-2.94
2018-03-18T07:01:16.271Z,-3.06
2018-03-18T07:03:43.798Z,-2.74
2018-03-18T07:06:11.330Z,-2.69
2018-03-18T07:08:38.845Z,-2.99
2018-03-18T07:11:06.376Z,-2.87
2018-03-18T07:13:33.904Z,-2.70
2018-03-18T07:16:01.435Z,-2.68
2018-03-18T07:18:28.952Z,-2.70
2018-03-18T07:20:56.486Z,-2.64
2018-03-18T07:23:24.019Z,-2.62
2018-03-18T07:25:51.542Z,-2.54
2018-03-18T07:28:19.064Z,-2.45
2018-03-18T07:30:46.595Z,-2.01
2018-03-18T07:33:14.109Z,-2.06
2018-03-18T07:35:41.639Z,-1.95
2018-03-18T07:38:09.184Z,-1.32
2018-03-18T07:40:36.714Z,-1.18
2018-03-18T07:43:04.243Z,-0.88
2018-03-18T07:45:31.780Z,-1.11
2018-03-18T07:47:59.310Z,-0.88
2018-03-18T07:50:26.837Z,-1.14
2018-03-18T07:52:54.353Z,-1.03
2018-03-18T07:55:21.973Z,-1.06
2018-03-18T07:57:49.505Z,-0.60
2018-03-18T08:00:17.077Z,-0.65
2018-03-18T08:02:44.596Z,-0.69
2018-03-18T08:05:12.126Z,-0.42
2018-03-18T08:07:39.660Z,-0.62
2018-03-18T08:10:07.178Z,-0.56
2018-03-18T08:12:34.734Z,-0.68
2018-03-18T08:15:02.265Z,-0.39
2018-03-18T08:17:29.797Z,-0.39
2018-03-18T08:19:57.321Z,-0.36
2018-03-18T08:22:24.841Z,0.11
2018-03-18T08:24:52.363Z,0.06
2018-03-18T08:27:19.900Z,0.09
2018-03-18T08:29:47.420Z,0.44
2018-03-18T08:32:14.945Z,0.61
2018-03-18T08:34:42.459Z,0.66
2018-03-18T08:37:09.966Z,0.97
2018-03-18T08:39:37.478Z,0.99
2018-03-18T08:42:05.726Z,1.53
2018-03-18T08:44:33.256Z,1.56
2018-03-18T08:47:00.777Z,1.00
2018-03-18T08:49:28.310Z,0.72
2018-03-18T08:51:55.852Z,1.82
2018-03-18T08:54:23.386Z,1.66
2018-03-18T08:56:50.921Z,1.75
2018-03-18T08:59:18.447Z,1.73
2018-03-18T09:01:45.989Z,1.80
2018-03-18T09:04:13.536Z,1.74
2018-03-18T09:06:41.065Z,1.28
2018-03-18T09:09:08.602Z,1.20
2018-03-18T09:11:36.111Z,1.57
2018-03-18T09:14:03.625Z,1.71
2018-03-18T09:16:31.141Z,1.41
2018-03-18T09:18:58.665Z,1.69
2018-03-18T09:21:26.206Z,2.29
2018-03-18T09:23:53.717Z,2.59
2018-03-18T09:26:21.229Z,2.91
2018-03-18T09:28:48.755Z,2.71
2018-03-18T09:31:16.289Z,2.32
2018-03-18T09:33:43.877Z,2.34
2018-03-18T09:36:11.420Z,2.10
2018-03-18T09:38:38.926Z,2.69
2018-03-18T09:41:06.432Z,3.58
2018-03-18T09:43:33.977Z,3.26
2018-03-18T09:46:01.494Z,3.61
2018-03-18T09:48:29.000Z,3.89
2018-03-18T09:50:56.511Z,3.91
2018-03-18T09:53:24.069Z,3.69
2018-03-18T09:55:51.591Z,3.86
2018-03-18T09:58:19.096Z,4.66
2018-03-18T10:00:46.610Z,4.57
2018-03-18T10:03:14.117Z,3.96
2018-03-18T10:05:41.651Z,4.18
2018-03-18T10:08:09.176Z,4.00
2018-03-18T10:10:36.695Z,4.39
2018-03-18T10:13:04.215Z,5.28
2018-03-18T10:15:31.746Z,4.62
2018-03-18T10:17:59.265Z,5.74
2018-03-18T10:20:26.780Z,5.49
2018-03-18T10:22:54.297Z,7.05
2018-03-18T10:25:21.812Z,7.84
2018-03-18T10:27:49.328Z,7.30
2018-03-18T10:30:16.847Z,6.30
2018-03-18T10:32:44.357Z,5.63
2018-03-18T10:35:11.873Z,4.25
2018-03-18T10:37:39.378Z,4.19
2018-03-18T10:40:06.905Z,4.27
2018-03-18T10:42:34.409Z,3.63
2018-03-18T10:45:01.925Z,2.98
2018-03-18T10:47:29.445Z,2.94
2018-03-18T10:49:56.975Z,2.35
2018-03-18T10:52:24.491Z,2.69
2018-03-18T10:54:52.028Z,1.88
2018-03-18T10:57:19.536Z,2.05
2018-03-18T10:59:47.049Z,1.81
2018-03-18T11:02:17.417Z,1.80
2018-03-18T11:04:44.940Z,2.18
2018-03-18T11:07:13.277Z,1.36
2018-03-18T11:09:40.800Z,1.66
2018-03-18T11:12:08.333Z,1.21
2018-03-18T11:14:35.837Z,1.20
2018-03-18T11:17:03.376Z,1.24
2018-03-18T11:19:30.910Z,1.44
2018-03-18T11:21:58.412Z,1.73
2018-03-18T11:24:25.935Z,2.08
2018-03-18T11:26:53.443Z,1.34
2018-03-18T11:29:20.959Z,1.14
2018-03-18T11:31:48.477Z,1.05
2018-03-18T11:34:23.809Z,1.12
2018-03-18T11:36:51.318Z,1.43
2018-03-18T11:39:19.611Z,0.99
2018-03-18T11:41:47.128Z,1.10
2018-03-18T11:44:14.646Z,1.12
2018-03-18T11:46:42.174Z,1.02
2018-03-18T11:49:09.712Z,1.06
2018-03-18T11:51:37.248Z,0.97
2018-03-18T11:54:04.758Z,1.30
2018-03-18T11:56:32.291Z,1.02
2018-03-18T11:58:59.841Z,1.10
2018-03-18T12:01:27.353Z,0.99
2018-03-18T12:03:54.874Z,1.03
2018-03-18T12:06:22.380Z,0.96
2018-03-18T12:08:59.780Z,0.86
2018-03-18T12:11:27.294Z,1.05
2018-03-18T12:13:54.834Z,0.88
2018-03-18T12:16:22.345Z,1.23
2018-03-18T12:18:49.891Z,1.20
2018-03-18T12:21:17.413Z,1.02
2018-03-18T12:23:44.945Z,1.09
2018-03-18T12:26:12.473Z,0.90
2018-03-18T12:28:40.021Z,1.05
2018-03-18T12:31:07.566Z,1.21
2018-03-18T12:33:35.084Z,1.10
2018-03-18T12:36:02.596Z,1.21
2018-03-18T12:38:30.146Z,1.28
2018-03-18T12:40:57.690Z,1.25
2018-03-18T12:43:29.736Z,1.28
2018-03-18T12:45:57.248Z,1.07
2018-03-18T12:48:24.772Z,1.30
2018-03-18T12:50:52.286Z,1.56
2018-03-18T12:53:19.796Z,1.53
2018-03-18T12:55:47.304Z,1.51
2018-03-18T12:58:14.834Z,1.50
2018-03-18T13:00:46.093Z,1.47
2018-03-18T13:03:13.606Z,1.28
2018-03-18T13:05:41.122Z,1.21
2018-03-18T13:08:08.640Z,1.33
2018-03-18T13:10:36.141Z,1.22
2018-03-18T13:13:03.667Z,1.50
2018-03-18T13:15:31.175Z,1.39
2018-03-18T13:17:58.691Z,1.44
2018-03-18T13:20:26.280Z,1.39
2018-03-18T13:22:53.828Z,1.38
2018-03-18T13:25:21.373Z,1.21
2018-03-18T13:27:48.885Z,1.48
2018-03-18T13:30:16.408Z,1.35
2018-03-18T13:32:43.946Z,1.47
2018-03-18T13:35:11.466Z,1.50
2018-03-18T13:37:38.977Z,1.57
2018-03-18T13:40:06.525Z,1.50
2018-03-18T13:42:34.040Z,1.72
2018-03-18T13:45:01.556Z,1.66
2018-03-18T13:47:29.098Z,1.64
2018-03-18T13:49:56.655Z,1.60
2018-03-18T13:52:24.146Z,1.45
2018-03-18T13:54:51.677Z,1.32
2018-03-18T13:57:19.188Z,1.46
2018-03-18T13:59:46.708Z,1.59
2018-03-18T14:02:14.228Z,1.38
2018-03-18T14:04:41.753Z,1.46
2018-03-18T14:07:09.274Z,1.53
2018-03-18T14:09:36.812Z,1.46
2018-03-18T14:12:04.325Z,1.46
2018-03-18T14:14:31.847Z,1.50
2018-03-18T14:16:59.359Z,1.45
2018-03-18T14:19:26.886Z,1.43
2018-03-18T14:21:54.401Z,1.53
2018-03-18T14:24:21.913Z,1.49
2018-03-18T14:26:49.440Z,1.58
2018-03-18T14:29:16.960Z,1.63
2018-03-18T14:31:44.474Z,1.57
2018-03-18T14:34:11.986Z,1.68
2018-03-18T14:36:39.534Z,1.69
2018-03-18T14:39:07.062Z,1.72
2018-03-18T14:41:34.583Z,1.69
2018-03-18T14:44:02.096Z,1.73
2018-03-18T14:46:29.611Z,1.78
2018-03-18T14:48:57.161Z,1.55
2018-03-18T14:51:24.681Z,1.53
2018-03-18T14:53:52.204Z,1.55
2018-03-18T14:56:19.717Z,1.62
2018-03-18T14:58:47.229Z,1.62
2018-03-18T15:01:14.738Z,1.62
2018-03-18T15:03:42.241Z,1.78
2018-03-18T15:06:09.782Z,1.57
2018-03-18T15:08:37.302Z,1.59
2018-03-18T15:11:04.813Z,1.62
2018-03-18T15:13:32.347Z,1.54
2018-03-18T15:15:59.880Z,1.52
2018-03-18T15:18:27.392Z,1.48
2018-03-18T15:20:54.905Z,1.56
2018-03-18T15:23:22.451Z,1.39
2018-03-18T15:25:49.998Z,1.40
2018-03-18T15:28:17.517Z,1.35
2018-03-18T15:30:45.032Z,1.45
2018-03-18T15:33:12.547Z,1.41
2018-03-18T15:35:40.065Z,1.36
2018-03-18T15:38:07.574Z,1.40
2018-03-18T15:40:35.092Z,1.46
2018-03-18T15:43:02.622Z,1.41
2018-03-18T15:45:30.145Z,1.39
2018-03-18T15:47:57.672Z,1.44
2018-03-18T15:50:25.202Z,1.41
2018-03-18T15:52:52.795Z,1.42
2018-03-18T15:55:20.312Z,1.35
2018-03-18T15:57:47.826Z,1.27
2018-03-18T16:00:15.337Z,1.27
2018-03-18T16:02:42.861Z,1.29
2018-03-18T16:05:10.380Z,1.21
2018-03-18T16:07:37.903Z,1.22
2018-03-18T16:10:05.417Z,1.22
2018-03-18T16:12:32.971Z,1.25
2018-03-18T16:15:00.496Z,1.24
2018-03-18T16:17:28.013Z,1.18
2018-03-18T16:19:55.530Z,1.12
2018-03-18T16:22:23.069Z,1.14
2018-03-18T16:24:50.594Z,1.18
2018-03-18T16:27:18.127Z,1.15
2018-03-18T16:29:57.320Z,1.20
2018-03-18T16:32:24.844Z,1.08
2018-03-18T16:34:52.358Z,1.04
2018-03-18T16:37:19.865Z,0.98
2018-03-18T16:39:47.396Z,1.04
2018-03-18T16:42:14.910Z,1.00
2018-03-18T16:44:42.437Z,1.03
2018-03-18T16:47:10.838Z,0.94
2018-03-18T16:49:38.368Z,0.97
2018-03-18T16:52:06.019Z,0.99
2018-03-18T16:54:33.546Z,0.86
2018-03-18T16:57:01.057Z,0.88
2018-03-18T16:59:28.600Z,0.79
2018-03-18T17:01:56.135Z,0.78
2018-03-18T17:04:23.661Z,0.71
2018-03-18T17:06:51.194Z,0.67
2018-03-18T17:09:18.709Z,0.69
2018-03-18T17:11:46.227Z,0.67
2018-03-18T17:14:13.760Z,0.67
2018-03-18T17:16:41.274Z,0.66
2018-03-18T17:19:08.800Z,0.60
2018-03-18T17:21:36.331Z,0.61
2018-03-18T17:24:03.851Z,0.54
2018-03-18T17:26:31.365Z,0.50
2018-03-18T17:28:58.870Z,0.55
2018-03-18T17:31:26.387Z,0.51
2018-03-18T17:33:53.897Z,0.46
2018-03-18T17:36:21.405Z,0.41
2018-03-18T17:38:48.933Z,0.44
2018-03-18T17:41:16.449Z,0.39
2018-03-18T17:43:43.975Z,0.39
2018-03-18T17:46:23.173Z,0.51
2018-03-18T17:49:02.712Z,0.32
2018-03-18T17:54:50.079Z,0.19
2018-03-18T17:57:17.709Z,0.14
2018-03-18T17:59:45.196Z,0.10
2018-03-18T18:02:12.706Z,0.07
2018-03-18T18:04:40.313Z,0.11
2018-03-18T18:07:07.852Z,0.06
2018-03-18T18:09:35.432Z,0.06
2018-03-18T18:12:02.957Z,0.02
2018-03-18T18:14:30.549Z,0.03
2018-03-18T18:16:58.095Z,0.01
2018-03-18T18:19:25.672Z,0.01
2018-03-18T18:21:53.259Z,-0.03
2018-03-18T18:24:20.815Z,-0.06
2018-03-18T18:26:48.463Z,-0.01
2018-03-18T18:29:16.129Z,-0.07
2018-03-18T18:31:43.648Z,-0.09
2018-03-18T18:34:11.409Z,-0.08
2018-03-18T18:36:39.090Z,-0.08
2018-03-18T18:39:06.628Z,-0.10
2018-03-18T18:41:34.154Z,-0.12
2018-03-18T18:44:01.760Z,-0.16
2018-03-18T18:46:29.293Z,-0.14
2018-03-18T18:48:57.001Z,-0.14
2018-03-18T18:51:24.533Z,-0.21
2018-03-18T18:53:52.064Z,-0.21
2018-03-18T18:56:19.688Z,-0.18
2018-03-18T18:58:47.344Z,-0.16
2018-03-18T19:01:14.873Z,-0.21
2018-03-18T19:03:42.983Z,-0.22
2018-03-18T19:06:10.536Z,-0.22
2018-03-18T19:08:38.097Z,-0.25
2018-03-18T19:11:05.626Z,-0.28
2018-03-18T19:13:33.208Z,-0.26
2018-03-18T19:16:00.737Z,-0.30
2018-03-18T19:18:28.265Z,-0.36
2018-03-18T19:20:55.798Z,-0.37
2018-03-18T19:23:23.351Z,-0.37
2018-03-18T19:25:50.872Z,-0.36
2018-03-18T19:28:18.481Z,-0.38
2018-03-18T19:30:46.126Z,-0.46
2018-03-18T19:33:13.690Z,-0.41
2018-03-18T19:35:41.209Z,-0.43
2018-03-18T19:38:08.736Z,-0.47
2018-03-18T19:40:36.265Z,-0.47
2018-03-18T19:43:03.792Z,-0.48
2018-03-18T19:45:31.384Z,-0.48
2018-03-18T19:47:59.173Z,-0.51
2018-03-18T19:50:26.929Z,-0.54
2018-03-18T19:52:54.502Z,-0.49
2018-03-18T19:55:22.019Z,-0.51
2018-03-18T19:57:49.609Z,-0.57
2018-03-18T20:00:17.153Z,-0.54
2018-03-18T20:02:44.686Z,-0.59
2018-03-18T20:05:12.343Z,-0.60
2018-03-18T20:07:39.945Z,-0.58
2018-03-18T20:10:07.463Z,-0.59
2018-03-18T20:12:35.069Z,-0.69
2018-03-18T20:15:02.599Z,-0.64
2018-03-18T20:17:30.213Z,-0.61
2018-03-18T20:19:57.781Z,-0.69
2018-03-18T20:22:25.418Z,-0.68
2018-03-18T20:24:53.281Z,-0.68
2018-03-18T20:27:20.826Z,-0.80
2018-03-18T20:29:48.332Z,-0.76
2018-03-18T20:32:15.861Z,-0.81
2018-03-18T20:34:43.551Z,-0.76
2018-03-18T20:37:11.083Z,-0.72
2018-03-18T20:39:38.646Z,-0.74
2018-03-18T20:42:06.180Z,-0.86
2018-03-18T20:44:33.705Z,-0.82
2018-03-18T20:47:01.241Z,-0.84
2018-03-18T20:49:28.765Z,-0.86
2018-03-18T20:51:56.339Z,-0.81
2018-03-18T20:54:23.865Z,-0.90
2018-03-18T20:56:51.386Z,-0.95
2018-03-18T20:59:18.917Z,-0.82
2018-03-18T21:01:46.437Z,-0.95
2018-03-18T21:04:13.969Z,-1.03
2018-03-18T21:06:41.492Z,-0.94
2018-03-18T21:09:09.018Z,-0.95
2018-03-18T21:11:36.580Z,-1.01
2018-03-18T21:14:04.126Z,-0.96
2018-03-18T21:16:31.646Z,-1.01
2018-03-18T21:18:59.294Z,-1.00
2018-03-18T21:21:26.900Z,-1.01
2018-03-18T21:23:54.493Z,-1.08
2018-03-18T21:26:22.161Z,-1.07
2018-03-18T21:28:49.818Z,-1.03
2018-03-18T21:31:17.345Z,-1.08
2018-03-18T21:33:44.960Z,-1.09
2018-03-18T21:36:12.494Z,-1.03
2018-03-18T21:38:40.022Z,-1.09
2018-03-18T21:41:07.642Z,-1.16
2018-03-18T21:43:35.166Z,-1.22
2018-03-18T21:46:02.700Z,-1.22
2018-03-18T21:48:30.221Z,-1.21
2018-03-18T21:50:57.751Z,-1.20
2018-03-18T21:53:25.283Z,-1.27
2018-03-18T21:55:52.812Z,-1.24
2018-03-18T21:58:20.328Z,-1.21
2018-03-18T22:00:47.874Z,-1.23
2018-03-18T22:03:15.416Z,-1.22
2018-03-18T22:05:42.935Z,-1.18
2018-03-18T22:08:10.464Z,-1.27
2018-03-18T22:10:37.989Z,-1.34
2018-03-18T22:13:05.550Z,-1.32
2018-03-18T22:15:33.073Z,-1.29
2018-03-18T22:18:00.632Z,-1.34
2018-03-18T22:20:28.164Z,-1.42
2018-03-18T22:22:55.751Z,-1.37
2018-03-18T22:25:23.282Z,-1.35
2018-03-18T22:27:50.823Z,-1.44
2018-03-18T22:30:18.355Z,-1.43
2018-03-18T22:32:45.877Z,-1.40
2018-03-18T22:35:13.397Z,-1.46
2018-03-18T22:37:41.020Z,-1.53
2018-03-18T22:40:08.554Z,-1.43
2018-03-18T22:42:36.080Z,-1.46
2018-03-18T22:45:03.613Z,-1.44
2018-03-18T22:47:31.250Z,-1.62
2018-03-18T22:49:58.772Z,-1.58
2018-03-18T22:52:26.374Z,-1.50
2018-03-18T22:54:53.930Z,-1.56
2018-03-18T22:57:21.445Z,-1.56
2018-03-18T22:59:48.981Z,-1.52
2018-03-18T23:02:16.613Z,-1.52
2018-03-18T23:04:44.137Z,-1.54
2018-03-18T23:07:11.664Z,-1.62
2018-03-18T23:09:39.189Z,-1.69
2018-03-18T23:12:06.745Z,-1.64
2018-03-18T23:14:34.270Z,-1.69
2018-03-18T23:17:01.896Z,-1.70
2018-03-18T23:19:29.416Z,-1.72
2018-03-18T23:21:56.990Z,-1.76
2018-03-18T23:24:24.570Z,-1.68
2018-03-18T23:26:52.093Z,-1.77
2018-03-18T23:29:19.653Z,-1.77
2018-03-18T23:31:47.174Z,-1.86
2018-03-18T23:34:14.784Z,-1.83
2018-03-18T23:36:42.349Z,-1.83
2018-03-18T23:39:09.913Z,-1.80
2018-03-18T23:41:37.470Z,-1.90
2018-03-18T23:44:04.994Z,-1.89
2018-03-18T23:46:32.583Z,-1.95
2018-03-18T23:49:00.108Z,-1.96
2018-03-18T23:51:27.711Z,-1.89
2018-03-18T23:53:55.233Z,-2.00
2018-03-18T23:56:22.761Z,-2.05
2018-03-18T23:58:50.272Z,-1.93
